• Join FlightAware (Why Join?)
  • Login
  • US Flag 
Rudolph Flight #1: Arrived! 
10:36PM EST


 

Airport Tracker/Info


-or-


 

Live Flight TrackerFlight Track Log ✈ ASA6 ✈ 05-Oct-2013 ✈ KLAX - KDCA

Flight Track Log - Related Links

Times and Time Zones

All times are in EDT time to prevent confusion due to time zone crossing. See the ASA6 flight status page for this flight to view local times or setup timezone preferences in your user account.

Time Position Orientation Groundspeed Altitude Reporting Facility
EDT Latitude Longitude Course Direction KTS MPH feet Rate Location/Type
03:54PM 33.9286 -118.4594 217° Southwest 191 220 1,900  Level Los Angeles Center
03:55PM 33.8733 -118.5103 217° Southwest 244 281 4,200 2,280 Climbing Los Angeles Center
03:56PM 33.8039 -118.5133 182° South 274 315 6,700 2,580 Climbing Los Angeles Center
03:57PM 33.7275 -118.5186 183° South 279 321 9,500 2,340 Climbing Los Angeles Center
03:58PM 33.6694 -118.4336 129° Southeast 302 348 11,500 1,920 Climbing Los Angeles Center
03:59PM 33.6439 -118.3292 106° East 330 380 13,500 1,500 Climbing Los Angeles Center
04:00PM 33.6444 -118.2119 90° East 360 414 14,600 1,380 Climbing Los Angeles Center
04:01PM 33.6436 -118.0833 90° East 384 442 16,400 1,680 Climbing Los Angeles Center
04:02PM 33.6272 -117.9469 98° East 413 475 18,100 1,800 Climbing Los Angeles Center
04:03PM 33.6097 -117.7814 97° East 416 479 20,200 1,740 Climbing Los Angeles Center
04:04PM 33.5936 -117.6372 98° East 430 495 21,700 1,800 Climbing Los Angeles Center
04:05PM 33.5783 -117.4897 97° East 442 509 23,900 1,740 Climbing Los Angeles Center
04:06PM 33.5619 -117.3456 98° East 440 506 25,400 1,440 Climbing Los Angeles Center
04:07PM 33.5442 -117.1947 98° East 451 519 26,900 1,200 Climbing Los Angeles Center
04:08PM 33.5275 -117.0419 97° East 457 526 27,900 1,140 Climbing Los Angeles Center
04:09PM 33.5111 -116.8833 97° East 474 545 29,300 1,440 Climbing Los Angeles Center
04:10PM 33.4903 -116.6939 97° East 475 547 30,900 1,200 Climbing Los Angeles Center
04:11PM 33.4719 -116.5358 98° East 477 549 31,800 720 Climbing Los Angeles Center
04:12PM 33.4522 -116.3733 98° East 486 559 32,500 840 Climbing Los Angeles Center
04:13PM 33.4311 -116.2058 99° East 501 577 33,600 1,080 Climbing Los Angeles Center
04:14PM 33.4114 -116.0422 98° East 497 572 34,800 660 Climbing Los Angeles Center
04:15PM 33.3906 -115.8761 98° East 500 575 35,000 60 Climbing Los Angeles Center
04:16PM 33.3683 -115.7083 99° East 507 583 35,000  Level Los Angeles Center
04:17PM 33.3475 -115.5397 98° East 510 587 35,000  Level Los Angeles Center
04:18PM 33.3269 -115.3714 98° East 511 588 35,000  Level Los Angeles Center
04:19PM 33.3003 -115.1675 99° East 515 593 35,000  Level Los Angeles Center
04:20PM 33.2786 -114.9972 99° East 516 594 35,000  Level Los Angeles Center
04:21PM 33.2556 -114.8267 99° East 518 596 35,000  Level Los Angeles Center
04:22PM 33.2333 -114.6556 99° East 520 598 35,000  Level Los Angeles Center
04:24PM 33.2106 -114.4839 99° East 522 601 35,000  Level Los Angeles Center
04:25PM 33.1878 -114.3128 99° East 523 602 35,000  Level Los Angeles Center
04:26PM 33.1636 -114.1400 99° East 525 604 35,000  Level Los Angeles Center
04:27PM 33.1411 -113.9681 99° East 526 605 35,000 60 Level Los Angeles Center
04:28PM 33.1094 -113.7628 100° East 522 601 35,200 480 Climbing Los Angeles Center
04:29PM 33.0872 -113.5869 99° East 533 613 36,000 720 Climbing Los Angeles Center
04:30PM 33.0622 -113.4136 100° East 530 610 36,700 480 Climbing Los Angeles Center
04:31PM 33.0361 -113.2361 100° East 533 613 37,000 120 Climbing Los Angeles Center
04:32PM 33.0056 -113.0244 100° East 533 613 37,000  Level Albuquerque Center
04:33PM 32.9800 -112.8500 100° East 533 613 37,000  Level Albuquerque Center
04:34PM 32.9539 -112.6753 100° East 532 612 37,000  Level Albuquerque Center
04:35PM 32.9261 -112.5022 101° East 530 610 37,000  Level Albuquerque Center
04:36PM 32.8992 -112.3278 100° East 533 613 37,000  Level Albuquerque Center
04:37PM 32.8714 -112.1394 100° East 535 616 37,000  Level Albuquerque Center
04:38PM 32.8447 -111.9667 100° East 533 613 37,000  Level Albuquerque Center
04:39PM 32.8169 -111.7917 101° East 540 621 37,000  Level Albuquerque Center
04:40PM 32.7900 -111.6172 100° East 540 621 37,000  Level Albuquerque Center
04:41PM 32.7625 -111.4450 101° East 536 617 37,000  Level Albuquerque Center
04:42PM 32.7278 -111.2389 101° East 535 616 37,000  Level Albuquerque Center
04:43PM 32.6997 -111.0667 101° East 534 615 37,000  Level Albuquerque Center
04:44PM 32.6717 -110.8936 101° East 537 618 37,000  Level Albuquerque Center
04:45PM 32.6419 -110.7214 102° East 535 616 37,000  Level Albuquerque Center
04:46PM 32.6142 -110.5475 101° East 537 618 37,000  Level Albuquerque Center
04:47PM 32.5847 -110.3747 101° East 538 619 37,000  Level Albuquerque Center
04:48PM 32.5533 -110.1886 101° East 541 623 37,000  Level Albuquerque Center
04:49PM 32.5217 -110.0144 102° East 543 625 37,000  Level Albuquerque Center
04:50PM 32.4922 -109.8411 101° East 541 623 37,000  Level Albuquerque Center
04:51PM 32.4547 -109.6314 102° East 544 626 37,000  Level Albuquerque Center
04:52PM 32.4217 -109.4575 103° East 546 628 37,000  Level Albuquerque Center
04:53PM 32.3931 -109.2867 101° East 539 620 37,000  Level Albuquerque Center
04:55PM 32.3611 -109.1133 102° East 541 623 37,000  Level Albuquerque Center
04:56PM 32.3308 -108.9400 102° East 543 625 37,000  Level Albuquerque Center
04:57PM 32.2975 -108.7672 103° East 544 626 37,000  Level Albuquerque Center
04:58PM 32.2600 -108.5581 102° East 546 628 37,000  Level Albuquerque Center
04:59PM 32.2317 -108.4083 103° East 544 626 37,000  Level Albuquerque Center
05:00PM 32.1928 -108.2017 102° East 541 623 37,000  Level Albuquerque Center
05:01PM 32.1603 -108.0300 103° East 539 620 37,000  Level Albuquerque Center
05:02PM 32.1281 -107.8592 103° East 537 618 37,000  Level Albuquerque Center
05:03PM 32.0958 -107.6889 103° East 537 618 37,000  Level Albuquerque Center
05:04PM 32.0631 -107.5186 103° East 536 617 37,000  Level Albuquerque Center
05:05PM 32.0300 -107.3492 103° East 537 618 37,000  Level Albuquerque Center
05:06PM 31.9903 -107.1456 103° East 538 619 37,000  Level Albuquerque Center
05:07PM 31.9572 -106.9761 103° East 536 617 37,000  Level Albuquerque Center
05:08PM 31.9228 -106.8058 103° East 538 619 37,000  Level Albuquerque Center
05:09PM 31.8883 -106.6361 103° East 538 619 37,000  Level Albuquerque Center
05:10PM 31.8550 -106.4719 103° East 543 625 37,000 -60 Level Albuquerque Center
05:11PM 31.8142 -106.2658 103° East 542 624 36,900  Descending Albuquerque Center
05:12PM 31.7706 -106.0994 107° East 534 615 37,000  Climbing Albuquerque Center
05:13PM 31.7289 -105.9319 106° East 534 615 37,000  Level Albuquerque Center
05:14PM 31.6858 -105.7633 107° East 538 619 37,000  Level Albuquerque Center
05:15PM 31.6436 -105.5950 106° East 537 618 37,000  Level Albuquerque Center
05:16PM 31.6022 -105.4258 106° East 538 619 37,000  Level Albuquerque Center
05:17PM 31.5592 -105.2583 107° East 536 617 37,000  Level Albuquerque Center
05:18PM 31.5161 -105.0886 107° East 538 619 37,000  Level Albuquerque Center
05:19PM 31.4719 -104.9189 107° East 540 621 37,000  Level Albuquerque Center
05:20PM 31.4200 -104.7164 107° East 539 620 37,000  Level Albuquerque Center
05:21PM 31.3758 -104.5469 107° East 540 621 37,000  Level Albuquerque Center
05:22PM 31.3328 -104.3786 107° East 539 620 37,000  Level Albuquerque Center
05:23PM 31.2881 -104.2103 107° East 540 621 37,000  Level Albuquerque Center
05:24PM 31.2433 -104.0422 107° East 540 621 37,000  Level Albuquerque Center
05:25PM 31.1983 -103.8756 107° East 539 620 37,000  Level Albuquerque Center
05:26PM 31.1458 -103.6881 108° East 532 612 37,000  Level Albuquerque Center
05:27PM 31.0983 -103.5247 109° East 535 616 37,000  Level Albuquerque Center
05:28PM 31.0558 -103.3619 107° East 526 605 37,000  Level Albuquerque Center
05:29PM 31.0111 -103.2003 108° East 526 605 37,000  Level Albuquerque Center
05:30PM 30.9689 -103.0411 107° East 520 598 37,000  Level Albuquerque Center
05:31PM 30.9397 -102.8756 102° East 529 609 37,000  Level Albuquerque Center
05:32PM 30.9239 -102.7061 96° East 532 612 37,000  Level Albuquerque Center
05:34PM 30.9019 -102.5036 97° East 530 610 37,000  Level Albuquerque Center
05:34PM 30.8886 -102.3683 97° East 530 610 37,000  Level Houston Center
05:35PM 30.8703 -102.2008 97° East 529 609 37,000  Level Houston Center
05:36PM 30.8500 -102.0000 97° East 528 608 37,000  Level Houston Center
05:37PM 30.8317 -101.8331 97° East 527 606 37,000  Level Houston Center
05:39PM 30.8131 -101.6639 97° East 529 609 37,000  Level Houston Center
05:40PM 30.7953 -101.4944 97° East 528 608 37,000  Level Houston Center
05:41PM 30.7769 -101.3242 97° East 530 610 37,000  Level Houston Center
05:42PM 30.7578 -101.1556 97° East 528 608 37,000  Level Houston Center
05:43PM 30.7381 -100.9883 98° East 523 602 37,000  Level Houston Center
05:44PM 30.7194 -100.8189 97° East 524 603 37,000  Level Houston Center
05:45PM 30.6997 -100.6503 98° East 526 605 37,000  Level Houston Center
05:46PM 30.6756 -100.4489 98° East 523 602 37,000  Level Houston Center
05:47PM 30.6567 -100.2811 97° East 522 601 37,000  Level Houston Center
05:48PM 30.6356 -100.1139 98° East 519 597 37,000  Level Houston Center
05:49PM 30.6156 -99.9469 98° East 519 597 37,000  Level Houston Center
05:50PM 30.5944 -99.7808 98° East 518 596 37,000  Level Houston Center
05:51PM 30.5736 -99.6144 98° East 520 598 37,000  Level Houston Center
05:52PM 30.5522 -99.4506 99° East 515 593 37,000  Level Houston Center
05:53PM 30.5311 -99.2872 98° East 514 592 37,000  Level Houston Center
05:54PM 30.5064 -99.0986 99° East 511 588 37,000  Level Houston Center
05:55PM 30.4831 -98.9356 99° East 510 587 37,000  Level Houston Center
05:56PM 30.4617 -98.7736 99° East 507 583 37,000  Level Houston Center
05:57PM 30.4403 -98.6122 99° East 504 580 37,000  Level Houston Center
05:58PM 30.4192 -98.4517 99° East 501 577 37,000  Level Houston Center
05:59PM 30.3964 -98.2917 99° East 500 575 37,000  Level Houston Center
06:00PM 30.3750 -98.1325 99° East 499 574 37,000  Level Houston Center
06:01PM 30.3528 -97.9747 99° East 495 570 37,000  Level Houston Center
06:02PM 30.3300 -97.8175 99° East 494 568 37,000  Level Houston Center
06:03PM 30.3083 -97.6589 99° East 496 571 37,000  Level Houston Center
06:04PM 30.2817 -97.4725 99° East 500 575 37,000  Level Houston Center
06:05PM 30.2575 -97.3147 100° East 499 574 37,000  Level Houston Center
06:06PM 30.2358 -97.1539 99° East 505 581 37,000  Level Houston Center
06:07PM 30.2111 -96.9944 100° East 503 579 37,000  Level Houston Center
06:08PM 30.1867 -96.8339 100° East 505 581 37,000  Level Houston Center
06:09PM 30.1636 -96.6717 99° East 508 585 37,000  Level Houston Center
06:10PM 30.1389 -96.5114 100° East 504 580 37,000  Level Houston Center
06:11PM 30.1142 -96.3461 100° East 504 580 37,000  Level Houston Center
06:12PM 30.0906 -96.1869 100° East 503 579 37,000  Level Houston Center
06:13PM 30.0647 -96.0281 101° East 504 580 37,000  Level Houston Center
06:14PM 30.0408 -95.8694 100° East 500 575 37,000  Level Houston Center
06:15PM 30.0161 -95.7119 100° East 498 573 37,000  Level Houston Center
06:16PM 29.9864 -95.5261 100° East 493 567 37,000  Level Houston Center
06:17PM 29.9625 -95.3703 100° East 492 566 37,000  Level Houston Center
06:19PM 29.9706 -95.2111 87° East 502 578 37,000  Level Houston Center
06:20PM 29.9850 -95.0525 84° East 495 570 37,000  Level Houston Center
06:21PM 29.9975 -94.8939 85° East 495 570 37,000  Level Houston Center
06:22PM 30.0128 -94.7358 84° East 495 570 37,000  Level Houston Center
06:23PM 30.0261 -94.5783 84° East 493 567 37,000  Level Houston Center
06:24PM 30.0383 -94.4053 85° East 490 564 37,000  Level Houston Center
06:25PM 30.0522 -94.2489 84° East 491 565 37,000  Level Houston Center
06:26PM 30.0642 -94.0931 85° East 490 564 37,000  Level Houston Center
06:27PM 30.0772 -93.9389 84° East 487 560 37,000  Level Houston Center
06:28PM 30.0886 -93.7858 85° East 485 558 37,000  Level Houston Center
06:29PM 30.1006 -93.6328 85° East 484 557 37,000  Level Houston Center
06:30PM 30.1372 -93.4533 77° East 491 565 37,000  Level Houston Center
06:31PM 30.1706 -93.3053 75° East 486 559 37,000  Level Houston Center
06:32PM 30.2047 -93.1581 75° East 482 555 37,000  Level Houston Center
06:33PM 30.2381 -93.0094 75° East 481 554 37,000  Level Houston Center
06:34PM 30.2708 -92.8581 76° East 487 560 37,000  Level Houston Center
06:35PM 30.3036 -92.7081 76° East 486 559 37,000  Level Houston Center
06:36PM 30.3442 -92.5267 75° East 485 558 37,000  Level Houston Center
06:37PM 30.3781 -92.3761 75° East 485 558 37,000  Level Houston Center
06:38PM 30.4083 -92.2164 78° East 484 557 37,000  Level Houston Center
06:39PM 30.4408 -92.0669 76° East 483 556 37,000  Level Houston Center
06:40PM 30.4736 -91.9158 76° East 487 560 37,000  Level Houston Center
06:41PM 30.5056 -91.7650 76° East 486 559 37,000  Level Houston Center
06:42PM 30.5389 -91.6136 76° East 489 563 37,000  Level Houston Center
06:43PM 30.5686 -91.4633 77° East 483 556 37,000  Level Houston Center
06:44PM 30.6003 -91.3139 76° East 484 557 37,000  Level Houston Center
06:45PM 30.6328 -91.1617 76° East 486 559 37,000  Level Houston Center
06:46PM 30.6667 -90.9792 78° East 483 556 37,000  Level Houston Center
06:47PM 30.6997 -90.8256 76° East 487 560 37,000  Level Houston Center
06:48PM 30.7306 -90.6714 77° East 489 563 37,000  Level Houston Center
06:49PM 30.7608 -90.5181 77° East 489 563 37,000  Level Houston Center
06:50PM 30.7919 -90.3636 77° East 488 562 37,000  Level Houston Center
06:51PM 30.8217 -90.2108 77° East 483 556 37,000  Level Houston Center
06:52PM 30.8525 -90.0558 77° East 487 560 37,000  Level Houston Center
06:53PM 30.8811 -89.9017 78° East 485 558 37,000  Level Houston Center
06:54PM 30.9122 -89.7472 77° East 488 562 37,000  Level Houston Center
06:55PM 30.9583 -89.5978 70° East 491 565 37,000  Level Houston Center
06:56PM 31.0153 -89.4561 65° Northeast 484 557 37,000  Level Houston Center
06:57PM 31.0844 -89.2842 65° Northeast 487 560 37,000  Level Houston Center
06:58PM 31.1408 -89.1392 66° East 490 564 37,000  Level Houston Center
06:59PM 31.1978 -88.9956 65° Northeast 490 564 37,000  Level Houston Center
07:00PM 31.2558 -88.8508 65° Northeast 483 556 37,000  Level Houston Center
07:02PM 31.3122 -88.7069 65° Northeast 484 557 37,000  Level Houston Center
07:03PM 31.3694 -88.5650 65° Northeast 481 554 37,000  Level Houston Center
07:04PM 31.4258 -88.4217 65° Northeast 481 554 37,000  Level Houston Center
07:05PM 31.4814 -88.2769 66° East 483 556 37,000  Level Houston Center
07:06PM 31.5386 -88.1328 65° Northeast 484 557 37,000  Level Houston Center
07:07PM 31.5936 -87.9869 66° East 486 559 37,000  Level Houston Center
07:08PM 31.6503 -87.8469 65° Northeast 473 544 37,000  Level Atlanta Center
07:09PM 31.7114 -87.6908 65° Northeast 473 544 37,000  Level Atlanta Center
07:10PM 31.7678 -87.5442 66° East 473 544 37,000  Level Atlanta Center
07:11PM 31.8239 -87.4019 65° Northeast 478 550 37,000  Level Atlanta Center
07:12PM 31.8756 -87.2719 65° Northeast 478 550 37,000  Level Atlanta Center
07:13PM 31.9581 -87.1453 52° Northeast 473 544 37,000  Level Atlanta Center
07:14PM 32.0403 -87.0206 52° Northeast 478 550 37,000  Level Atlanta Center
07:15PM 32.1186 -86.8933 54° Northeast 483 556 37,000  Level Atlanta Center
07:16PM 32.1986 -86.7658 53° Northeast 483 556 37,000  Level Atlanta Center
07:17PM 32.2914 -86.6286 51° Northeast 483 556 37,000  Level Atlanta Center
07:18PM 32.3733 -86.5006 53° Northeast 483 556 37,000  Level Atlanta Center
07:19PM 32.4342 -86.3817 59° Northeast 476 548 37,000  Level Atlanta Center
07:20PM 32.5200 -86.2508 52° Northeast 482 555 37,000  Level Atlanta Center
07:21PM 32.5972 -86.1222 54° Northeast 487 560 37,000  Level Atlanta Center
07:22PM 32.6767 -85.9908 54° Northeast 487 560 37,000  Level Atlanta Center
07:23PM 32.7558 -85.8617 54° Northeast 487 560 37,000  Level Atlanta Center
07:24PM 32.8350 -85.7322 54° Northeast 487 560 37,000  Level Atlanta Center
07:25PM 32.9161 -85.5928 55° Northeast 482 555 37,000  Level Atlanta Center
07:26PM 32.9969 -85.4631 53° Northeast 482 555 37,000  Level Atlanta Center
07:27PM 33.0672 -85.3550 52° Northeast 470 541 37,000  Level Atlanta Center
07:28PM 33.1436 -85.2297 54° Northeast 470 541 37,000  Level Atlanta Center
07:29PM 33.2219 -85.0967 55° Northeast 482 555 37,000  Level Atlanta Center
07:30PM 33.2981 -84.9683 55° Northeast 477 549 37,000 120 Level Atlanta Center
07:31PM 33.3742 -84.8372 55° Northeast 477 549 37,300 600 Climbing Atlanta Center
07:32PM 33.4586 -84.6986 54° Northeast 477 549 38,300 840 Climbing Atlanta Center
07:33PM 33.5322 -84.5672 56° Northeast 472 543 39,000 300 Climbing Atlanta Center
07:34PM 33.6017 -84.4503 54° Northeast 472 543 39,000  Level Atlanta Center
07:35PM 33.6750 -84.3233 55° Northeast 472 543 39,000  Level Atlanta Center
07:36PM 33.7586 -84.1761 56° Northeast 472 543 39,000  Level Atlanta Center
07:37PM 33.8339 -84.0489 55° Northeast 481 554 39,000  Level Atlanta Center
07:38PM 33.9069 -83.9211 55° Northeast 469 540 39,000  Level Atlanta Center
07:39PM 33.9819 -83.7958 54° Northeast 469 540 39,000  Level Atlanta Center
07:40PM 34.0544 -83.6653 56° Northeast 469 540 39,000  Level Atlanta Center
07:41PM 34.1272 -83.5394 55° Northeast 469 540 39,000  Level Atlanta Center
07:42PM 34.2039 -83.4083 55° Northeast 469 540 39,000  Level Atlanta Center
07:43PM 34.2761 -83.2822 55° Northeast 469 540 39,000  Level Atlanta Center
07:44PM 34.3503 -83.1481 56° Northeast 469 540 39,000  Level Atlanta Center
07:45PM 34.4244 -83.0164 56° Northeast 469 540 39,000  Level Atlanta Center
07:46PM 34.4983 -82.8869 55° Northeast 475 547 39,000  Level Atlanta Center
07:47PM 34.5703 -82.7572 56° Northeast 463 533 39,000  Level Atlanta Center
07:48PM 34.6358 -82.6403 56° Northeast 463 533 39,000  Level Atlanta Center
07:49PM 34.7114 -82.5150 54° Northeast 463 533 39,000  Level Atlanta Center
07:50PM 34.7828 -82.3847 56° Northeast 468 539 39,000  Level Atlanta Center
07:51PM 34.8539 -82.2517 57° Northeast 468 539 39,000  Level Atlanta Center
07:52PM 34.9353 -82.1106 55° Northeast 468 539 39,000  Level Atlanta Center
07:53PM 35.0061 -81.9797 57° Northeast 468 539 39,000  Level Atlanta Center
07:54PM 35.0789 -81.8458 56° Northeast 468 539 39,000  Level Atlanta Center
07:55PM 35.1475 -81.7119 58° Northeast 468 539 39,000  Level Atlanta Center
07:56PM 35.2200 -81.5778 56° Northeast 468 539 39,000  Level Atlanta Center
07:57PM 35.2883 -81.4458 58° Northeast 463 533 39,000  Level Atlanta Center
07:58PM 35.3561 -81.3114 58° Northeast 463 533 39,000  Level Atlanta Center
07:59PM 35.4242 -81.1742 59° Northeast 463 533 39,000  Level Atlanta Center
08:00PM 35.4978 -81.0339 57° Northeast 468 539 39,000  Level Atlanta Center
08:01PM 35.5697 -80.9008 56° Northeast 473 544 39,000  Level Atlanta Center
08:02PM 35.6372 -80.7731 57° Northeast 465 535 39,000  Level Atlanta Center
08:03PM 35.7067 -80.6400 57° Northeast 460 529 39,000  Level Atlanta Center
08:04PM 35.7658 -80.5222 58° Northeast 460 529 39,000  Level Atlanta Center
08:05PM 35.8331 -80.3914 58° Northeast 454 522 39,000 -300 Level Atlanta Center
08:06PM 35.9056 -80.2419 59° Northeast 454 522 38,400 -1,860 Descending Atlanta Center
08:08PM 36.0622 -79.9472 57° Northeast 443 510 33,000 -1,680 Descending Washington Center
08:09PM 36.1400 -79.8153 54° Northeast 448 516 33,000  Level Washington Center
08:10PM 36.2156 -79.6778 56° Northeast 470 541 33,000  Level Washington Center
08:11PM 36.2844 -79.5575 55° Northeast 478 550 33,000 -120 Level Washington Center
08:12PM 36.3664 -79.4122 55° Northeast 473 544 32,800 -660 Descending Washington Center
08:13PM 36.4328 -79.2914 56° Northeast 473 544 31,700 -1,560 Descending Washington Center
08:14PM 36.5144 -79.1403 56° Northeast 473 544 29,700 -1,920 Descending Washington Center
08:15PM 36.5914 -79.0119 53° Northeast 473 544 27,800 -1,980 Descending Washington Center
08:16PM 36.6639 -78.8803 56° Northeast 467 537 25,800 -1,440 Descending Washington Center
08:17PM 36.7233 -78.7664 57° Northeast 451 519 25,000 -420 Descending Washington Center
08:18PM 36.7911 -78.6447 55° Northeast 433 498 25,000  Level Washington Center
08:19PM 36.8544 -78.5278 56° Northeast 419 482 25,000  Level Washington Center
08:20PM 36.9244 -78.3978 56° Northeast 413 475 25,000  Level Washington Center
08:21PM 36.9917 -78.2781 55° Northeast 413 475 25,000  Level Washington Center
08:22PM 37.0569 -78.1581 56° Northeast 408 470 25,000  Level Washington Center
08:23PM 37.1200 -78.0350 57° Northeast 408 470 25,000 -120 Level Washington Center
08:24PM 37.1914 -77.9044 56° Northeast 421 484 24,800 -900 Descending Washington Center
08:25PM 37.2650 -77.7658 56° Northeast 453 521 23,300 -1,380 Descending Washington Center
08:26PM 37.3383 -77.6294 56° Northeast 464 534 22,200 -720 Descending Washington Center
08:27PM 37.4094 -77.4953 56° Northeast 464 534 22,000 -120 Descending Washington Center
08:28PM 37.4825 -77.3608 56° Northeast 464 534 22,000  Level Washington Center
08:29PM 37.5939 -77.3008 23° Northeast 424 488 22,000 -1,080 Level Washington Center
08:30PM 37.7150 -77.2744 10° North 418 481 19,900 -2,280 Descending Washington Center
08:31PM 37.8322 -77.2508 North 418 481 17,500 -2,340 Descending Washington Center
08:32PM 37.9431 -77.2269 10° North 412 474 15,300 -1,980 Descending Washington Center
08:33PM 38.0392 -77.2133 North 392 451 13,600 -1,740 Descending Washington Center
08:34PM 38.1397 -77.1917 10° North 379 436 11,900 -1,740 Descending Washington Center
08:35PM 38.2464 -77.1647 11° North 363 418 10,200 -960 Descending Washington Center
08:36PM 38.3319 -77.1508 North 350 403 10,000 -120 Descending Washington Center
08:37PM 38.4261 -77.1289 10° North 345 397 10,000  Level Washington Center
08:38PM 38.5203 -77.1122 North 345 397 10,000 -540 Level Washington Center
08:39PM 38.6333 -77.0833 11° North 287 330 8,900 -1,260 Descending Potomac TRACON
08:40PM 38.7167 -77.0667 North 282 325 7,200 -1,500 Descending Potomac TRACON
08:41PM 38.7833 -77.0833 349° North 278 320 6,000 -600 Descending Potomac TRACON
08:42PM 38.8500 -77.1333 330° Northwest 235 270 6,000 -540 Level Potomac TRACON
08:43PM 38.8833 -77.1833 311° West 232 267 5,000 -540 Descending Potomac TRACON
08:44PM 38.9333 -77.2333 322° Northwest 223 257 5,000  Level Potomac TRACON
08:45PM 38.9833 -77.2833 322° Northwest 218 251 5,000 -480 Level Potomac TRACON
08:46PM 39.0167 -77.2333 49° Northeast 224 258 4,000 -900 Descending Potomac TRACON
08:47PM 39.0000 -77.1833 113° Southeast 189 217 3,200 -660 Descending Potomac TRACON
08:48PM 38.9667 -77.1500 142° Southeast 174 200 2,700 -780 Descending Potomac TRACON
08:49PM 38.9167 -77.1167 153° Southeast 167 192 1,800 -900 Descending Potomac TRACON
08:50PM 38.9000 -77.0667 113° Southeast 143 165 1,100 -660 Descending Potomac TRACON
08:51PM 38.8833 -77.0333 123° Southeast 136 157 500 -600 Descending Potomac TRACON
08:53PM 38.8500 -77.0333 124° Southeast  Level FlightAware Approximate